createdAt,value
2018-11-28T00:00:24.187Z,-2.24
2018-11-28T00:01:34.315Z,-2.12
2018-11-28T00:02:44.431Z,-2.12
2018-11-28T00:03:54.021Z,-2.15
2018-11-28T00:05:04.144Z,-2.14
2018-11-28T00:06:14.021Z,-2.12
2018-11-28T00:07:24.136Z,-2.24
2018-11-28T00:08:34.257Z,-2.21
2018-11-28T00:09:44.371Z,-2.25
2018-11-28T00:10:54.485Z,-2.33
2018-11-28T00:12:04.434Z,-2.43
2018-11-28T00:13:14.554Z,-2.47
2018-11-28T00:14:24.654Z,-2.55
2018-11-28T00:15:34.518Z,-2.5
2018-11-28T00:16:44.651Z,-2.44
2018-11-28T00:17:54.807Z,-2.44
2018-11-28T00:19:04.916Z,-2.4
2018-11-28T00:20:15.018Z,-2.28
2018-11-28T00:21:25.194Z,-2.22
2018-11-28T00:22:35.306Z,-2.19
2018-11-28T00:23:45.432Z,-2.22
2018-11-28T00:24:55.553Z,-2.21
2018-11-28T00:26:05.663Z,-2.29
2018-11-28T00:27:15.773Z,-2.4
2018-11-28T00:28:25.873Z,-2.39
2018-11-28T00:29:36.002Z,-2.34
2018-11-28T00:30:46.130Z,-2.36
2018-11-28T00:31:56.216Z,-2.34
2018-11-28T00:33:06.327Z,-2.34
2018-11-28T00:34:16.426Z,-2.42
2018-11-28T00:35:26.578Z,-2.55
2018-11-28T00:36:36.681Z,-2.5
2018-11-28T00:37:46.889Z,-2.52
2018-11-28T00:38:56.763Z,-2.5
2018-11-28T00:40:06.880Z,-2.5
2018-11-28T00:41:16.988Z,-2.55
2018-11-28T00:42:27.088Z,-2.51
2018-11-28T00:43:37.218Z,-2.54
2018-11-28T00:44:47.077Z,-2.55
2018-11-28T00:45:57.183Z,-2.54
2018-11-28T00:47:07.265Z,-2.61
2018-11-28T00:48:17.394Z,-2.55
2018-11-28T00:49:27.232Z,-2.54
2018-11-28T00:50:37.342Z,-2.5
2018-11-28T00:51:47.451Z,-2.47
2018-11-28T00:52:57.558Z,-2.44
2018-11-28T00:54:07.671Z,-2.52
2018-11-28T00:55:17.784Z,-2.5
2018-11-28T00:56:27.901Z,-2.58
2018-11-28T00:57:37.994Z,-2.64
2018-11-28T00:58:48.095Z,-2.58
2018-11-28T00:59:58.216Z,-2.74
2018-11-28T01:01:08.339Z,-2.81
2018-11-28T01:02:18.438Z,-2.77
2018-11-28T01:03:28.604Z,-2.77
2018-11-28T01:04:38.708Z,-2.86
2018-11-28T01:05:48.817Z,-2.89
2018-11-28T01:06:58.916Z,-2.88
2018-11-28T01:08:09.062Z,-2.95
2018-11-28T01:09:19.184Z,-2.81
2018-11-28T01:10:29.077Z,-2.84
2018-11-28T01:11:39.418Z,-2.94
2018-11-28T01:12:49.529Z,-2.88
2018-11-28T01:13:59.668Z,-2.86
2018-11-28T01:15:09.774Z,-2.91
2018-11-28T01:16:19.894Z,-2.94
2018-11-28T01:17:30.062Z,-2.91
2018-11-28T01:18:39.825Z,-2.94
2018-11-28T01:19:49.672Z,-2.92
2018-11-28T01:20:59.824Z,-2.89
2018-11-28T01:22:09.939Z,-2.94
2018-11-28T01:23:20.039Z,-2.83
2018-11-28T01:24:30.154Z,-2.86
2018-11-28T01:25:40.493Z,-2.8
2018-11-28T01:26:50.343Z,-2.62
2018-11-28T01:28:00.443Z,-2.65
2018-11-28T01:29:10.543Z,-2.65
2018-11-28T01:30:20.644Z,-2.61
2018-11-28T01:31:30.758Z,-2.46
2018-11-28T01:32:40.900Z,-2.47
2018-11-28T01:33:50.993Z,-2.46
2018-11-28T01:35:01.150Z,-2.43
2018-11-28T01:36:11.271Z,-2.46
2018-11-28T01:37:21.384Z,-2.47
2018-11-28T01:38:31.501Z,-2.5
2018-11-28T01:39:41.625Z,-2.57
2018-11-28T01:40:51.719Z,-2.62
2018-11-28T01:42:01.817Z,-2.65
2018-11-28T01:43:12.204Z,-2.73
2018-11-28T01:44:22.365Z,-2.64
2018-11-28T01:45:31.959Z,-2.7
2018-11-28T01:46:42.068Z,-2.58
2018-11-28T01:47:52.177Z,-2.71
2018-11-28T01:49:02.267Z,-2.64
2018-11-28T01:50:12.398Z,-2.64
2018-11-28T01:51:22.491Z,-2.64
2018-11-28T01:52:32.596Z,-2.65
2018-11-28T01:53:42.695Z,-2.61
2018-11-28T01:54:52.790Z,-2.46
2018-11-28T01:56:02.912Z,-2.51
2018-11-28T01:57:13.047Z,-2.52
2018-11-28T01:58:23.156Z,-2.57
2018-11-28T01:59:33.246Z,-2.58
2018-11-28T02:00:43.336Z,-2.47
2018-11-28T02:01:53.646Z,-2.46
2018-11-28T02:03:03.736Z,-2.44
2018-11-28T02:04:13.582Z,-2.42
2018-11-28T02:05:23.712Z,-2.39
2018-11-28T02:06:33.814Z,-2.37
2018-11-28T02:07:43.937Z,-2.37
2018-11-28T02:08:54.034Z,-2.46
2018-11-28T02:10:04.147Z,-2.4
2018-11-28T02:11:13.996Z,-2.4
2018-11-28T02:12:24.090Z,-2.54
2018-11-28T02:13:34.191Z,-2.7
2018-11-28T02:14:44.286Z,-2.65
2018-11-28T02:15:54.153Z,-2.77
2018-11-28T02:17:04.484Z,-2.83
2018-11-28T02:18:14.589Z,-2.86
2018-11-28T02:19:24.692Z,-2.81
2018-11-28T02:20:34.808Z,-2.84
2018-11-28T02:21:45.129Z,-2.89
2018-11-28T02:22:55.222Z,-2.89
2018-11-28T02:24:05.331Z,-2.94
2018-11-28T02:25:15.430Z,-3.04
2018-11-28T02:26:25.286Z,-3.09
2018-11-28T02:27:35.396Z,-3.12
2018-11-28T02:28:45.493Z,-3.1
2018-11-28T02:29:55.657Z,-3.19
2018-11-28T02:31:05.765Z,-3.15
2018-11-28T02:32:15.887Z,-3.15
2018-11-28T02:33:25.988Z,-3.23
2018-11-28T02:34:36.085Z,-3.13
2018-11-28T02:35:46.424Z,-3.16
2018-11-28T02:36:56.553Z,-3.26
2018-11-28T02:38:06.651Z,-3.27
2018-11-28T02:39:16.757Z,-3.22
2018-11-28T02:40:26.875Z,-3.23
2018-11-28T02:41:36.968Z,-3.26
2018-11-28T02:42:47.079Z,-3.3
2018-11-28T02:43:57.200Z,-3.34
2018-11-28T02:45:07.320Z,-3.34
2018-11-28T02:46:17.064Z,-3.3
2018-11-28T02:47:27.181Z,-3.28
2018-11-28T02:48:37.044Z,-3.33
2018-11-28T02:49:47.197Z,-3.26
2018-11-28T02:50:57.287Z,-3.35
2018-11-28T02:52:07.378Z,-3.4
2018-11-28T02:53:17.485Z,-3.4
2018-11-28T02:54:27.348Z,-3.3
2018-11-28T02:55:37.452Z,-3.35
2018-11-28T02:56:47.310Z,-3.34
2018-11-28T02:57:57.157Z,-3.28
2018-11-28T02:59:07.250Z,-3.38
2018-11-28T03:00:17.402Z,-3.34
2018-11-28T03:01:27.514Z,-3.33
2018-11-28T03:02:37.612Z,-3.3
2018-11-28T03:03:47.713Z,-3.33
2018-11-28T03:04:57.831Z,-3.33
2018-11-28T03:06:07.958Z,-3.37
2018-11-28T03:07:18.074Z,-3.37
2018-11-28T03:08:28.173Z,-3.43
2018-11-28T03:09:38.315Z,-3.41
2018-11-28T03:10:48.430Z,-3.48
2018-11-28T03:11:58.533Z,-3.54
2018-11-28T03:13:08.650Z,-3.54
2018-11-28T03:14:18.749Z,-3.41
2018-11-28T03:15:28.845Z,-3.43
2018-11-28T03:16:38.722Z,-3.48
2018-11-28T03:17:48.824Z,-3.52
2018-11-28T03:18:58.686Z,-3.55
2018-11-28T03:20:08.790Z,-3.51
2018-11-28T03:21:18.929Z,-3.55
2018-11-28T03:22:29.031Z,-3.59
2018-11-28T03:23:39.177Z,-3.66
2018-11-28T03:24:49.284Z,-3.67
2018-11-28T03:25:59.384Z,-3.52
2018-11-28T03:27:09.499Z,-3.54
2018-11-28T03:28:19.612Z,-3.52
2018-11-28T03:29:29.720Z,-3.49
2018-11-28T03:30:39.838Z,-3.51
2018-11-28T03:31:49.963Z,-3.52
2018-11-28T03:33:00.250Z,-3.63
2018-11-28T03:34:10.411Z,-3.64
2018-11-28T03:35:21.869Z,-3.69
2018-11-28T03:36:32.105Z,-3.69
2018-11-28T03:37:42.196Z,-3.69
2018-11-28T03:38:52.305Z,-3.7
2018-11-28T03:40:02.430Z,-3.74
2018-11-28T03:41:12.537Z,-3.84
2018-11-28T03:42:22.634Z,-3.73
2018-11-28T03:43:32.726Z,-3.76
2018-11-28T03:44:43.024Z,-3.81
2018-11-28T03:45:53.115Z,-3.72
2018-11-28T03:47:03.227Z,-3.7
2018-11-28T03:48:13.326Z,-3.79
2018-11-28T03:49:23.430Z,-3.85
2018-11-28T03:50:33.556Z,-3.87
2018-11-28T03:51:43.667Z,-3.82
2018-11-28T03:52:53.783Z,-3.88
2018-11-28T03:54:03.928Z,-3.85
2018-11-28T03:55:14.050Z,-3.94
2018-11-28T03:56:23.897Z,-3.91
2018-11-28T03:57:34.003Z,-3.82
2018-11-28T03:58:44.122Z,-3.88
2018-11-28T03:59:54.227Z,-3.88
2018-11-28T04:01:04.390Z,-3.85
2018-11-28T04:02:14.124Z,-3.91
2018-11-28T04:03:24.227Z,-3.85
2018-11-28T04:04:34.336Z,-3.79
2018-11-28T04:05:44.942Z,-3.81
2018-11-28T04:06:55.068Z,-3.74
2018-11-28T04:08:05.188Z,-3.74
2018-11-28T04:09:15.286Z,-3.76
2018-11-28T04:10:25.410Z,-3.76
2018-11-28T04:11:35.519Z,-3.84
2018-11-28T04:12:45.386Z,-3.88
2018-11-28T04:13:55.515Z,-3.76
2018-11-28T04:15:05.617Z,-3.74
2018-11-28T04:16:15.724Z,-3.84
2018-11-28T04:17:25.832Z,-3.87
2018-11-28T04:18:35.932Z,-3.79
2018-11-28T04:19:46.038Z,-3.87
2018-11-28T04:20:55.902Z,-3.91
2018-11-28T04:22:06.036Z,-3.91
2018-11-28T04:23:16.193Z,-3.94
2018-11-28T04:24:26.291Z,-3.87
2018-11-28T04:25:36.374Z,-3.92
2018-11-28T04:26:46.478Z,-4
2018-11-28T04:27:56.590Z,-4.03
2018-11-28T04:29:06.719Z,-4.06
2018-11-28T04:30:16.813Z,-4.11
2018-11-28T04:31:27.125Z,-4.14
2018-11-28T04:32:37.233Z,-4.1
2018-11-28T04:33:47.359Z,-4.1
2018-11-28T04:34:57.492Z,-4.14
2018-11-28T04:36:07.590Z,-4.11
2018-11-28T04:37:17.745Z,-4.13
2018-11-28T04:38:27.852Z,-4.13
2018-11-28T04:39:37.975Z,-4.14
2018-11-28T04:40:48.087Z,-4.1
2018-11-28T04:41:58.198Z,-4.05
2018-11-28T04:43:08.320Z,-3.98
2018-11-28T04:44:18.445Z,-3.9
2018-11-28T04:45:28.557Z,-3.94
2018-11-28T04:46:38.673Z,-3.92
2018-11-28T04:47:48.803Z,-3.92
2018-11-28T04:48:58.903Z,-3.91
2018-11-28T04:50:08.990Z,-3.91
2018-11-28T04:51:19.104Z,-3.84
2018-11-28T04:52:29.218Z,-3.87
2018-11-28T04:53:39.311Z,-3.85
2018-11-28T04:54:49.172Z,-3.85
2018-11-28T04:55:58.915Z,-3.84
2018-11-28T04:57:09.005Z,-3.91
2018-11-28T04:58:19.102Z,-3.91
2018-11-28T04:59:29.206Z,-3.87
2018-11-28T05:00:39.308Z,-3.88
2018-11-28T05:01:49.055Z,-3.73
2018-11-28T05:02:59.169Z,-3.72
2018-11-28T05:04:09.280Z,-3.73
2018-11-28T05:05:19.383Z,-3.73
2018-11-28T05:06:29.488Z,-3.76
2018-11-28T05:07:39.627Z,-3.79
2018-11-28T05:08:49.741Z,-3.69
2018-11-28T05:09:59.857Z,-3.76
2018-11-28T05:11:09.943Z,-3.77
2018-11-28T05:12:19.797Z,-3.79
2018-11-28T05:13:29.899Z,-3.87
2018-11-28T05:14:40.047Z,-3.85
2018-11-28T05:15:50.164Z,-3.87
2018-11-28T05:17:00.278Z,-3.87
2018-11-28T05:18:10.375Z,-3.94
2018-11-28T05:19:20.494Z,-3.95
2018-11-28T05:20:30.610Z,-3.92
2018-11-28T05:21:40.716Z,-4.02
2018-11-28T05:22:50.807Z,-3.9
2018-11-28T05:24:00.912Z,-3.88
2018-11-28T05:25:11.029Z,-3.94
2018-11-28T05:26:21.362Z,-3.98
2018-11-28T05:27:31.463Z,-3.92
2018-11-28T05:28:41.613Z,-4.02
2018-11-28T05:29:51.708Z,-4.02
2018-11-28T05:31:01.826Z,-4.11
2018-11-28T05:32:12.151Z,-4.14
2018-11-28T05:33:22.257Z,-4.21
2018-11-28T05:34:32.601Z,-4.09
2018-11-28T05:35:42.716Z,-4.19
2018-11-28T05:36:52.798Z,-4.17
2018-11-28T05:38:02.293Z,-4.17
2018-11-28T05:39:12.396Z,-4.17
2018-11-28T05:40:22.524Z,-4.25
2018-11-28T05:41:32.620Z,-4.27
2018-11-28T05:42:42.723Z,-4.31
2018-11-28T05:43:52.827Z,-4.39
2018-11-28T05:45:02.923Z,-4.28
2018-11-28T05:46:12.776Z,-4.39
2018-11-28T05:47:23.111Z,-4.28
2018-11-28T05:48:33.215Z,-4.43
2018-11-28T05:49:43.325Z,-4.35
2018-11-28T05:50:53.188Z,-4.37
2018-11-28T05:52:03.290Z,-4.35
2018-11-28T05:53:13.391Z,-4.32
2018-11-28T05:54:23.490Z,-4.4
2018-11-28T05:55:33.648Z,-4.42
2018-11-28T05:56:43.822Z,-4.35
2018-11-28T05:57:53.936Z,-4.49
2018-11-28T05:59:04.038Z,-4.4
2018-11-28T06:00:14.175Z,-4.49
2018-11-28T06:01:24.292Z,-4.47
2018-11-28T06:02:34.126Z,-4.35
2018-11-28T06:03:43.971Z,-4.29
2018-11-28T06:04:54.071Z,-4.28
2018-11-28T06:06:04.179Z,-4.24
2018-11-28T06:07:14.312Z,-4.19
2018-11-28T06:08:24.463Z,-4.14
2018-11-28T06:09:34.563Z,-4.09
2018-11-28T06:10:44.682Z,-4.13
2018-11-28T06:11:54.793Z,-4.09
2018-11-28T06:13:04.930Z,-4.16
2018-11-28T06:14:15.027Z,-4.16
2018-11-28T06:15:25.154Z,-4.16
2018-11-28T06:16:35.265Z,-4.17
2018-11-28T06:17:45.368Z,-4.21
2018-11-28T06:18:55.477Z,-4.24
2018-11-28T06:20:05.634Z,-4.24
2018-11-28T06:21:15.760Z,-4.24
2018-11-28T06:22:25.878Z,-4.27
2018-11-28T06:23:35.730Z,-4.25
2018-11-28T06:24:45.846Z,-4.27
2018-11-28T06:25:55.979Z,-4.28
2018-11-28T06:27:06.084Z,-4.32
2018-11-28T06:28:16.207Z,-4.32
2018-11-28T06:29:26.334Z,-4.45
2018-11-28T06:30:36.442Z,-4.39
2018-11-28T06:31:46.550Z,-4.43
2018-11-28T06:32:56.672Z,-4.46
2018-11-28T06:34:06.773Z,-4.52
2018-11-28T06:35:16.866Z,-4.4
2018-11-28T06:36:26.707Z,-4.43
2018-11-28T06:37:36.446Z,-4.47
2018-11-28T06:38:46.534Z,-4.45
2018-11-28T06:39:56.284Z,-4.4
2018-11-28T06:41:06.154Z,-4.4
2018-11-28T06:42:16.245Z,-4.5
2018-11-28T06:43:26.347Z,-4.46
2018-11-28T06:44:36.462Z,-4.6
2018-11-28T06:45:46.565Z,-4.64
2018-11-28T06:46:56.675Z,-4.58
2018-11-28T06:48:06.876Z,-4.58
2018-11-28T06:49:17.009Z,-4.6
2018-11-28T06:50:27.189Z,-4.61
2018-11-28T06:51:37.295Z,-4.47
2018-11-28T06:52:47.150Z,-4.47
2018-11-28T06:53:57.311Z,-4.55
2018-11-28T06:55:07.410Z,-4.4
2018-11-28T06:56:17.512Z,-4.42
2018-11-28T06:57:27.608Z,-4.43
2018-11-28T06:58:37.729Z,-4.42
2018-11-28T06:59:47.841Z,-4.39
2018-11-28T07:00:57.944Z,-4.47
2018-11-28T07:02:08.086Z,-4.4
2018-11-28T07:03:18.187Z,-4.35
2018-11-28T07:04:28.305Z,-4.45
2018-11-28T07:05:38.416Z,-4.37
2018-11-28T07:06:48.528Z,-4.35
2018-11-28T07:07:58.632Z,-4.28
2018-11-28T07:09:08.743Z,-4.28
2018-11-28T07:10:18.858Z,-4.21
2018-11-28T07:11:28.699Z,-4.11
2018-11-28T07:12:38.821Z,-4.11
2018-11-28T07:13:48.933Z,-4.17
2018-11-28T07:14:59.038Z,-4.09
2018-11-28T07:16:09.142Z,-4.09
2018-11-28T07:17:19.238Z,-3.91
2018-11-28T07:18:29.335Z,-3.95
2018-11-28T07:19:39.459Z,-4
2018-11-28T07:20:49.620Z,-4.11
2018-11-28T07:21:59.770Z,-3.97
2018-11-28T07:23:11.294Z,-4.03
2018-11-28T07:24:21.594Z,-3.94
2018-11-28T07:25:31.759Z,-3.97
2018-11-28T07:26:41.892Z,-3.94
2018-11-28T07:27:51.999Z,-4.05
2018-11-28T07:29:02.134Z,-4.09
2018-11-28T07:30:12.249Z,-4.06
2018-11-28T07:31:22.345Z,-3.94
2018-11-28T07:32:32.440Z,-3.95
2018-11-28T07:33:42.280Z,-3.9
2018-11-28T07:34:52.406Z,-3.92
2018-11-28T07:36:02.502Z,-3.9
2018-11-28T07:37:12.357Z,-3.92
2018-11-28T07:38:22.473Z,-3.94
2018-11-28T07:39:32.601Z,-3.9
2018-11-28T07:40:42.796Z,-3.91
2018-11-28T07:41:52.910Z,-3.81
2018-11-28T07:43:03.005Z,-3.82
2018-11-28T07:44:13.108Z,-3.79
2018-11-28T07:45:23.225Z,-3.79
2018-11-28T07:46:33.334Z,-3.67
2018-11-28T07:47:43.444Z,-3.7
2018-11-28T07:48:53.549Z,-3.59
2018-11-28T07:50:03.666Z,-3.64
2018-11-28T07:51:13.522Z,-3.59
2018-11-28T07:52:23.647Z,-3.52
2018-11-28T07:53:33.769Z,-3.48
2018-11-28T07:54:43.882Z,-3.45
2018-11-28T07:55:54.015Z,-3.43
2018-11-28T07:57:04.139Z,-3.37
2018-11-28T07:58:14.262Z,-3.26
2018-11-28T07:59:24.422Z,-3.12
2018-11-28T08:00:34.526Z,-3.22
2018-11-28T08:01:44.637Z,-3.15
2018-11-28T08:02:54.763Z,-3.08
2018-11-28T08:04:05.163Z,-3.09
2018-11-28T08:05:15.288Z,-2.91
2018-11-28T08:06:25.146Z,-2.94
2018-11-28T08:07:35.300Z,-2.97
2018-11-28T08:08:45.427Z,-2.91
2018-11-28T08:09:55.541Z,-2.86
2018-11-28T08:11:05.810Z,-2.94
2018-11-28T08:12:16.951Z,-2.94
2018-11-28T08:13:27.045Z,-2.94
2018-11-28T08:14:37.181Z,-2.94
2018-11-28T08:15:47.293Z,-2.97
2018-11-28T08:16:57.212Z,-2.94
2018-11-28T08:18:07.329Z,-2.89
2018-11-28T08:19:17.214Z,-2.95
2018-11-28T08:20:31.848Z,-2.86
2018-11-28T08:21:41.986Z,-2.94
2018-11-28T08:22:52.125Z,-2.91
2018-11-28T08:24:02.227Z,-2.91
2018-11-28T08:25:13.045Z,-2.86
2018-11-28T08:26:23.250Z,-3.01
2018-11-28T08:27:33.416Z,-2.98
2018-11-28T08:28:43.701Z,-2.84
2018-11-28T08:29:53.796Z,-2.88
2018-11-28T08:31:03.931Z,-2.97
2018-11-28T08:32:15.345Z,-2.83
2018-11-28T08:33:26.297Z,-2.74
2018-11-28T08:34:36.394Z,-2.8
2018-11-28T08:35:47.691Z,-2.8
2018-11-28T08:36:57.894Z,-2.76
2018-11-28T08:38:08.008Z,-2.74
2018-11-28T08:39:18.132Z,-2.73
2018-11-28T08:40:28.436Z,-2.58
2018-11-28T08:41:38.520Z,-2.54
2018-11-28T08:42:48.653Z,-2.5
2018-11-28T08:43:58.783Z,-2.4
2018-11-28T08:45:08.890Z,-2.36
2018-11-28T08:46:19.017Z,-2.32
2018-11-28T08:47:29.174Z,-2.26
2018-11-28T08:48:39.352Z,-2.28
2018-11-28T08:49:49.481Z,-2.26
2018-11-28T08:50:59.606Z,-2.19
2018-11-28T08:52:09.720Z,-2.08
2018-11-28T08:53:19.862Z,-2.04
2018-11-28T08:54:29.992Z,-1.92
2018-11-28T08:55:40.107Z,-1.86
2018-11-28T08:56:50.220Z,-1.86
2018-11-28T08:58:00.319Z,-1.82
2018-11-28T08:59:10.480Z,-1.89
2018-11-28T09:00:20.592Z,-1.83
2018-11-28T09:01:30.735Z,-1.88
2018-11-28T09:02:40.863Z,-1.92
2018-11-28T09:03:51.083Z,-1.85
2018-11-28T09:05:01.209Z,-1.83
2018-11-28T09:06:11.321Z,-1.7
2018-11-28T09:07:21.429Z,-1.64
2018-11-28T09:08:31.536Z,-1.62
2018-11-28T09:09:41.653Z,-1.5
2018-11-28T09:10:51.774Z,-1.4
2018-11-28T09:12:01.883Z,-1.32
2018-11-28T09:13:12.014Z,-1.25
2018-11-28T09:14:22.183Z,-1.1
2018-11-28T09:15:33.790Z,-1.1
2018-11-28T09:16:44.114Z,-1.06
2018-11-28T09:17:54.315Z,-1.09
2018-11-28T09:19:04.506Z,-0.96
2018-11-28T09:20:14.618Z,-0.94
2018-11-28T09:21:24.725Z,-1.02
2018-11-28T09:22:34.843Z,-0.92
2018-11-28T09:23:44.974Z,-0.74
2018-11-28T09:24:55.118Z,-0.77
2018-11-28T09:26:05.242Z,-0.63
2018-11-28T09:27:15.355Z,-0.6
2018-11-28T09:28:25.472Z,-0.49
2018-11-28T09:29:35.613Z,-0.48
2018-11-28T09:30:45.965Z,-0.35
2018-11-28T09:31:56.080Z,-0.35
2018-11-28T09:33:06.203Z,-0.12
2018-11-28T09:34:16.555Z,0.06
2018-11-28T09:35:26.684Z,0.3
2018-11-28T09:36:36.796Z,0.74
2018-11-28T09:37:50.284Z,1
2018-11-28T09:39:00.450Z,1.43
2018-11-28T09:40:10.724Z,1.72
2018-11-28T09:41:20.866Z,1.97
2018-11-28T09:42:30.996Z,2.18
2018-11-28T09:43:41.116Z,2.51
2018-11-28T09:44:51.311Z,2.85
2018-11-28T09:46:01.469Z,3.07
2018-11-28T09:47:11.613Z,3.29
2018-11-28T09:48:21.718Z,3.46
2018-11-28T09:49:31.825Z,3.72
2018-11-28T09:50:41.951Z,3.73
2018-11-28T09:51:52.096Z,3.86
2018-11-28T09:53:02.282Z,3.95
2018-11-28T09:54:12.438Z,4.03
2018-11-28T09:55:22.565Z,4.12
2018-11-28T09:56:32.703Z,4.23
2018-11-28T09:57:42.830Z,4.49
2018-11-28T09:58:53.015Z,4.7
2018-11-28T10:00:03.167Z,4.89
2018-11-28T10:01:13.305Z,4.99
2018-11-28T10:02:23.472Z,5.1
2018-11-28T10:03:33.586Z,5.18
2018-11-28T10:04:43.704Z,5.26
2018-11-28T10:05:53.838Z,5.58
2018-11-28T10:07:03.968Z,5.83
2018-11-28T10:08:14.071Z,5.88
2018-11-28T10:09:24.275Z,6.06
2018-11-28T10:10:33.922Z,6.11
2018-11-28T10:11:44.043Z,6.14
2018-11-28T10:12:54.150Z,6.12
2018-11-28T10:14:04.271Z,6.06
2018-11-28T10:15:14.406Z,6.08
2018-11-28T10:16:24.550Z,6.16
2018-11-28T10:17:34.716Z,6.17
2018-11-28T10:18:44.970Z,6.21
2018-11-28T10:19:55.092Z,6.28
2018-11-28T10:21:05.194Z,6.41
2018-11-28T10:22:15.301Z,6.46
2018-11-28T10:23:25.469Z,6.49
2018-11-28T10:24:36.855Z,6.64
2018-11-28T10:25:47.000Z,6.6
2018-11-28T10:26:57.353Z,6.74
2018-11-28T10:28:07.475Z,6.56
2018-11-28T10:29:17.811Z,6.6
2018-11-28T10:30:29.037Z,6.59
2018-11-28T10:31:39.393Z,6.54
2018-11-28T10:32:49.168Z,6.72
2018-11-28T10:33:59.327Z,6.77
2018-11-28T10:35:09.477Z,6.87
2018-11-28T10:36:19.622Z,6.96
2018-11-28T10:37:29.750Z,6.95
2018-11-28T10:38:39.870Z,6.93
2018-11-28T10:39:49.791Z,6.77
2018-11-28T10:40:59.660Z,6.74
2018-11-28T10:42:09.792Z,6.74
2018-11-28T10:43:19.930Z,6.84
2018-11-28T10:44:30.074Z,6.97
2018-11-28T10:45:40.203Z,6.97
2018-11-28T10:46:50.342Z,7.03
2018-11-28T10:48:00.503Z,7.11
2018-11-28T10:49:10.628Z,7.08
2018-11-28T10:50:20.791Z,7.03
2018-11-28T10:51:31.023Z,7.03
2018-11-28T10:52:40.888Z,6.97
2018-11-28T10:53:51.006Z,6.97
2018-11-28T10:55:01.629Z,6.87
2018-11-28T10:56:11.932Z,6.74
2018-11-28T10:57:22.065Z,6.82
2018-11-28T10:58:32.571Z,6.87
2018-11-28T10:59:42.705Z,6.9
2018-11-28T11:00:52.850Z,6.93
2018-11-28T11:02:03.015Z,6.89
2018-11-28T11:03:12.909Z,6.82
2018-11-28T11:04:23.158Z,6.85
2018-11-28T11:05:33.515Z,6.81
2018-11-28T11:06:43.650Z,6.85
2018-11-28T11:07:53.778Z,6.79
2018-11-28T11:09:03.921Z,6.84
2018-11-28T11:10:14.046Z,6.57
2018-11-28T11:11:24.196Z,6.53
2018-11-28T11:12:34.352Z,6.54
2018-11-28T11:13:44.538Z,6.45
2018-11-28T11:14:54.682Z,6.28
2018-11-28T11:16:04.935Z,6.27
2018-11-28T11:17:15.175Z,6.28
2018-11-28T11:18:25.362Z,6.21
2018-11-28T11:19:36.137Z,6.08
2018-11-28T11:20:46.295Z,5.96
2018-11-28T11:21:56.428Z,6.02
2018-11-28T11:23:06.647Z,6.02
2018-11-28T11:24:17.072Z,6.14
2018-11-28T11:25:27.196Z,6.09
2018-11-28T11:26:37.338Z,6.06
2018-11-28T11:27:47.501Z,6.05
2018-11-28T11:28:57.624Z,6.19
2018-11-28T11:30:07.787Z,6.2
2018-11-28T11:31:17.936Z,6.14
2018-11-28T11:32:28.058Z,6.17
2018-11-28T11:33:37.679Z,6.17
2018-11-28T11:34:47.828Z,6.03
2018-11-28T11:35:57.975Z,5.79
2018-11-28T11:37:08.104Z,5.94
2018-11-28T11:38:18.253Z,5.77
2018-11-28T11:39:28.484Z,5.88
2018-11-28T11:40:38.635Z,5.9
2018-11-28T11:41:48.758Z,6.06
2018-11-28T11:42:58.956Z,6.08
2018-11-28T11:44:09.114Z,5.96
2018-11-28T11:45:18.988Z,5.9
2018-11-28T11:46:29.172Z,5.69
2018-11-28T11:47:39.312Z,5.59
2018-11-28T11:48:49.458Z,5.44
2018-11-28T11:49:59.332Z,5.31
2018-11-28T11:51:09.521Z,5.17
2018-11-28T11:52:19.664Z,5.18
2018-11-28T11:53:29.785Z,5.1
2018-11-28T11:54:39.928Z,5.11
2018-11-28T11:55:50.067Z,5.07
2018-11-28T11:57:00.197Z,5.03
2018-11-28T11:58:10.479Z,4.89
2018-11-28T11:59:20.608Z,4.57
2018-11-28T12:00:30.753Z,4.53
2018-11-28T12:01:40.872Z,4.41
2018-11-28T12:02:51.049Z,4.38
2018-11-28T12:04:00.976Z,4.4
2018-11-28T12:05:11.251Z,4.33
2018-11-28T12:06:21.386Z,4.36
2018-11-28T12:07:31.496Z,4.23
2018-11-28T12:08:41.591Z,4.13
2018-11-28T12:09:51.729Z,3.98
2018-11-28T12:11:01.852Z,3.91
2018-11-28T12:12:11.977Z,3.8
2018-11-28T12:13:22.132Z,3.73
2018-11-28T12:14:32.260Z,3.69
2018-11-28T12:15:42.389Z,3.58
2018-11-28T12:16:52.523Z,3.39
2018-11-28T12:18:02.640Z,3.26
2018-11-28T12:19:12.238Z,3.18
2018-11-28T12:20:22.357Z,3.08
2018-11-28T12:21:32.139Z,2.94
2018-11-28T12:22:42.245Z,2.85
2018-11-28T12:23:52.375Z,2.74
2018-11-28T12:25:02.497Z,2.53
2018-11-28T12:26:12.624Z,2.46
2018-11-28T12:27:22.768Z,2.3
2018-11-28T12:28:32.897Z,2.44
2018-11-28T12:29:43.432Z,2.34
2018-11-28T12:30:53.811Z,2.37
2018-11-28T12:32:03.938Z,2.28
2018-11-28T12:33:15.124Z,2.27
2018-11-28T12:34:25.521Z,2.3
2018-11-28T12:35:35.644Z,2.39
2018-11-28T12:36:45.755Z,2.36
2018-11-28T12:37:55.868Z,2.37
2018-11-28T12:39:05.992Z,2.44
2018-11-28T12:40:16.136Z,2.3
2018-11-28T12:41:26.255Z,2.33
2018-11-28T12:42:36.412Z,2.28
2018-11-28T12:43:46.531Z,2.28
2018-11-28T12:44:56.659Z,2.26
2018-11-28T12:46:06.790Z,2.23
2018-11-28T12:47:16.956Z,2.23
2018-11-28T12:48:26.832Z,2.15
2018-11-28T12:49:36.949Z,2.19
2018-11-28T12:50:47.064Z,2.23
2018-11-28T12:51:56.945Z,2.13
2018-11-28T12:53:07.100Z,2.1
2018-11-28T12:54:17.222Z,2.08
2018-11-28T12:55:27.657Z,2.06
2018-11-28T12:56:37.787Z,2.12
2018-11-28T12:57:47.926Z,2.1
2018-11-28T12:58:58.067Z,2.15
2018-11-28T13:00:08.204Z,2.21
2018-11-28T13:01:18.335Z,2.19
2018-11-28T13:02:28.475Z,2.23
2018-11-28T13:03:38.243Z,2.21
2018-11-28T13:04:48.371Z,2.13
2018-11-28T13:05:58.511Z,2.13
2018-11-28T13:07:08.371Z,2.01
2018-11-28T13:08:18.513Z,2.06
2018-11-28T13:09:28.649Z,2
2018-11-28T13:10:39.052Z,2.01
2018-11-28T13:11:49.185Z,1.92
2018-11-28T13:12:59.604Z,1.87
2018-11-28T13:14:09.782Z,1.77
2018-11-28T13:15:19.933Z,1.8
2018-11-28T13:16:30.055Z,1.74
2018-11-28T13:17:40.187Z,1.73
2018-11-28T13:18:50.310Z,1.76
2018-11-28T13:20:03.879Z,1.72
2018-11-28T13:21:14.321Z,1.72
2018-11-28T13:22:24.455Z,1.62
2018-11-28T13:23:34.578Z,1.53
2018-11-28T13:24:44.969Z,1.51
2018-11-28T13:25:55.100Z,1.47
2018-11-28T13:27:05.463Z,1.43
2018-11-28T13:28:15.339Z,1.38
2018-11-28T13:29:25.478Z,1.39
2018-11-28T13:30:35.586Z,1.42
2018-11-28T13:31:45.701Z,1.32
2018-11-28T13:32:55.822Z,1.33
2018-11-28T13:34:05.954Z,1.39
2018-11-28T13:35:16.107Z,1.43
2018-11-28T13:36:27.517Z,1.47
2018-11-28T13:37:37.653Z,1.5
2018-11-28T13:38:48.554Z,1.53
2018-11-28T13:39:58.420Z,1.5
2018-11-28T13:41:08.540Z,1.47
2018-11-28T13:42:18.664Z,1.53
2018-11-28T13:43:28.831Z,1.54
2018-11-28T13:44:38.702Z,1.55
2018-11-28T13:45:48.860Z,1.54
2018-11-28T13:46:58.992Z,1.5
2018-11-28T13:48:09.134Z,1.55
2018-11-28T13:49:19.270Z,1.4
2018-11-28T13:50:29.617Z,1.3
2018-11-28T13:51:39.759Z,1.33
2018-11-28T13:52:49.887Z,1.32
2018-11-28T13:53:59.998Z,1.2
2018-11-28T13:56:29.736Z,1.25
